sensor_id;sensor_type;location;lat;lon;timestamp;temperature;humidity
2957;DHT22;1488;51.548;7.222;2023-05-10T00:01:20;22.50;73.10
2957;DHT22;1488;51.548;7.222;2023-05-10T00:03:47;22.50;73.10
2957;DHT22;1488;51.548;7.222;2023-05-10T00:06:13;22.50;73.10
2957;DHT22;1488;51.548;7.222;2023-05-10T00:08:42;22.50;73.10
2957;DHT22;1488;51.548;7.222;2023-05-10T00:11:08;22.40;73.80
2957;DHT22;1488;51.548;7.222;2023-05-10T00:13:35;22.50;73.10
2957;DHT22;1488;51.548;7.222;2023-05-10T00:16:02;22.50;73.20
2957;DHT22;1488;51.548;7.222;2023-05-10T00:18:29;22.50;73.10
2957;DHT22;1488;51.548;7.222;2023-05-10T00:20:56;22.50;73.20
2957;DHT22;1488;51.548;7.222;2023-05-10T00:23:22;22.50;73.10
2957;DHT22;1488;51.548;7.222;2023-05-10T00:25:51;22.40;73.00
2957;DHT22;1488;51.548;7.222;2023-05-10T00:28:17;22.40;73.00
2957;DHT22;1488;51.548;7.222;2023-05-10T00:30:44;22.40;73.00
2957;DHT22;1488;51.548;7.222;2023-05-10T00:33:11;22.40;73.00
2957;DHT22;1488;51.548;7.222;2023-05-10T00:35:38;22.40;73.00
2957;DHT22;1488;51.548;7.222;2023-05-10T00:38:05;22.40;73.00
2957;DHT22;1488;51.548;7.222;2023-05-10T00:40:31;22.40;73.00
2957;DHT22;1488;51.548;7.222;2023-05-10T00:43:00;22.40;73.00
2957;DHT22;1488;51.548;7.222;2023-05-10T00:45:26;22.40;73.00
2957;DHT22;1488;51.548;7.222;2023-05-10T00:47:53;22.40;73.10
2957;DHT22;1488;51.548;7.222;2023-05-10T00:50:21;22.40;73.00
2957;DHT22;1488;51.548;7.222;2023-05-10T00:52:48;22.40;73.00
2957;DHT22;1488;51.548;7.222;2023-05-10T00:55:16;22.40;73.10
2957;DHT22;1488;51.548;7.222;2023-05-10T00:57:42;22.40;73.00
2957;DHT22;1488;51.548;7.222;2023-05-10T01:00:12;22.40;73.00
2957;DHT22;1488;51.548;7.222;2023-05-10T01:02:43;22.40;73.10
2957;DHT22;1488;51.548;7.222;2023-05-10T01:05:10;22.40;73.10
2957;DHT22;1488;51.548;7.222;2023-05-10T01:07:37;22.40;73.10
2957;DHT22;1488;51.548;7.222;2023-05-10T01:10:04;22.40;73.10
2957;DHT22;1488;51.548;7.222;2023-05-10T01:12:32;22.40;73.10
2957;DHT22;1488;51.548;7.222;2023-05-10T01:15:00;22.40;73.10
2957;DHT22;1488;51.548;7.222;2023-05-10T01:17:29;22.40;73.10
2957;DHT22;1488;51.548;7.222;2023-05-10T01:19:57;22.40;73.10
2957;DHT22;1488;51.548;7.222;2023-05-10T01:22:40;22.40;73.10
2957;DHT22;1488;51.548;7.222;2023-05-10T01:25:36;22.40;73.10
2957;DHT22;1488;51.548;7.222;2023-05-10T01:28:38;22.40;73.10
2957;DHT22;1488;51.548;7.222;2023-05-10T01:31:18;22.40;73.10
2957;DHT22;1488;51.548;7.222;2023-05-10T01:33:55;22.40;73.20
2957;DHT22;1488;51.548;7.222;2023-05-10T01:36:31;22.40;73.20
2957;DHT22;1488;51.548;7.222;2023-05-10T01:39:02;22.40;73.20
2957;DHT22;1488;51.548;7.222;2023-05-10T01:41:40;22.40;73.20
2957;DHT22;1488;51.548;7.222;2023-05-10T01:44:15;22.40;73.20
2957;DHT22;1488;51.548;7.222;2023-05-10T01:46:43;22.40;73.20
2957;DHT22;1488;51.548;7.222;2023-05-10T01:49:18;22.40;73.20
2957;DHT22;1488;51.548;7.222;2023-05-10T01:51:50;22.40;73.20
2957;DHT22;1488;51.548;7.222;2023-05-10T01:54:19;22.40;73.20
2957;DHT22;1488;51.548;7.222;2023-05-10T01:56:52;22.40;73.20
2957;DHT22;1488;51.548;7.222;2023-05-10T01:59:21;22.30;73.10
2957;DHT22;1488;51.548;7.222;2023-05-10T02:01:49;22.40;73.20
2957;DHT22;1488;51.548;7.222;2023-05-10T02:04:19;22.40;73.20
2957;DHT22;1488;51.548;7.222;2023-05-10T02:06:48;22.30;73.10
2957;DHT22;1488;51.548;7.222;2023-05-10T02:09:18;22.40;73.20
2957;DHT22;1488;51.548;7.222;2023-05-10T02:11:47;22.30;73.10
2957;DHT22;1488;51.548;7.222;2023-05-10T02:14:15;22.30;73.10
2957;DHT22;1488;51.548;7.222;2023-05-10T02:16:43;22.30;73.10
2957;DHT22;1488;51.548;7.222;2023-05-10T02:19:12;22.30;73.20
2957;DHT22;1488;51.548;7.222;2023-05-10T02:21:41;22.30;73.20
2957;DHT22;1488;51.548;7.222;2023-05-10T02:24:10;22.30;73.10
2957;DHT22;1488;51.548;7.222;2023-05-10T02:26:38;22.30;73.10
2957;DHT22;1488;51.548;7.222;2023-05-10T02:29:05;22.30;73.10
2957;DHT22;1488;51.548;7.222;2023-05-10T02:31:33;22.30;73.10
2957;DHT22;1488;51.548;7.222;2023-05-10T02:34:10;22.30;73.10
2957;DHT22;1488;51.548;7.222;2023-05-10T02:36:38;22.30;73.10
2957;DHT22;1488;51.548;7.222;2023-05-10T02:39:07;22.30;73.10
2957;DHT22;1488;51.548;7.222;2023-05-10T02:41:39;22.30;73.20
2957;DHT22;1488;51.548;7.222;2023-05-10T02:44:07;22.30;73.10
2957;DHT22;1488;51.548;7.222;2023-05-10T02:46:35;22.30;73.20
2957;DHT22;1488;51.548;7.222;2023-05-10T02:49:03;22.30;73.10
2957;DHT22;1488;51.548;7.222;2023-05-10T02:51:31;22.30;73.10
2957;DHT22;1488;51.548;7.222;2023-05-10T02:54:15;22.30;73.20
2957;DHT22;1488;51.548;7.222;2023-05-10T02:56:49;22.30;73.10
2957;DHT22;1488;51.548;7.222;2023-05-10T02:59:17;22.30;73.20
2957;DHT22;1488;51.548;7.222;2023-05-10T03:01:43;22.30;73.20
2957;DHT22;1488;51.548;7.222;2023-05-10T03:04:10;22.30;73.20
2957;DHT22;1488;51.548;7.222;2023-05-10T03:06:37;22.30;73.20
2957;DHT22;1488;51.548;7.222;2023-05-10T03:09:04;22.30;74.10
2957;DHT22;1488;51.548;7.222;2023-05-10T03:11:43;22.30;73.20
2957;DHT22;1488;51.548;7.222;2023-05-10T03:14:29;22.30;73.20
2957;DHT22;1488;51.548;7.222;2023-05-10T03:17:04;22.30;73.20
2957;DHT22;1488;51.548;7.222;2023-05-10T03:19:39;22.30;73.20
2957;DHT22;1488;51.548;7.222;2023-05-10T03:22:10;22.20;73.10
2957;DHT22;1488;51.548;7.222;2023-05-10T03:24:41;22.30;73.30
2957;DHT22;1488;51.548;7.222;2023-05-10T03:27:08;22.30;73.20
2957;DHT22;1488;51.548;7.222;2023-05-10T03:29:38;22.20;73.00
2957;DHT22;1488;51.548;7.222;2023-05-10T03:32:05;22.30;73.30
2957;DHT22;1488;51.548;7.222;2023-05-10T03:34:32;22.30;73.30
2957;DHT22;1488;51.548;7.222;2023-05-10T03:36:59;22.30;73.20
2957;DHT22;1488;51.548;7.222;2023-05-10T03:39:26;22.30;73.20
2957;DHT22;1488;51.548;7.222;2023-05-10T03:41:52;22.30;73.30
2957;DHT22;1488;51.548;7.222;2023-05-10T03:44:19;22.30;73.30
2957;DHT22;1488;51.548;7.222;2023-05-10T03:46:47;22.30;73.20
2957;DHT22;1488;51.548;7.222;2023-05-10T03:49:14;22.30;73.20
2957;DHT22;1488;51.548;7.222;2023-05-10T03:51:41;22.30;73.20
2957;DHT22;1488;51.548;7.222;2023-05-10T03:54:08;22.30;73.20
2957;DHT22;1488;51.548;7.222;2023-05-10T03:56:34;22.20;73.10
2957;DHT22;1488;51.548;7.222;2023-05-10T03:59:01;22.30;73.20
2957;DHT22;1488;51.548;7.222;2023-05-10T04:01:32;22.20;74.00
2957;DHT22;1488;51.548;7.222;2023-05-10T04:04:00;22.20;73.10
2957;DHT22;1488;51.548;7.222;2023-05-10T04:06:27;22.20;73.10
2957;DHT22;1488;51.548;7.222;2023-05-10T04:08:54;22.20;73.10
2957;DHT22;1488;51.548;7.222;2023-05-10T04:11:21;22.20;73.10
2957;DHT22;1488;51.548;7.222;2023-05-10T04:13:48;22.20;73.10
2957;DHT22;1488;51.548;7.222;2023-05-10T04:16:15;22.20;73.10
2957;DHT22;1488;51.548;7.222;2023-05-10T04:18:42;22.20;73.20
2957;DHT22;1488;51.548;7.222;2023-05-10T04:21:13;22.20;73.10
2957;DHT22;1488;51.548;7.222;2023-05-10T04:23:40;22.20;73.10
2957;DHT22;1488;51.548;7.222;2023-05-10T04:26:07;22.20;73.10
2957;DHT22;1488;51.548;7.222;2023-05-10T04:28:34;22.20;73.10
2957;DHT22;1488;51.548;7.222;2023-05-10T04:31:02;22.20;73.10
2957;DHT22;1488;51.548;7.222;2023-05-10T04:33:29;22.20;74.00
2957;DHT22;1488;51.548;7.222;2023-05-10T04:35:56;22.20;73.10
2957;DHT22;1488;51.548;7.222;2023-05-10T04:38:24;22.20;73.20
2957;DHT22;1488;51.548;7.222;2023-05-10T04:40:51;22.20;73.20
2957;DHT22;1488;51.548;7.222;2023-05-10T04:43:18;22.20;73.10
2957;DHT22;1488;51.548;7.222;2023-05-10T04:45:44;22.20;73.20
2957;DHT22;1488;51.548;7.222;2023-05-10T04:48:11;22.20;73.20
2957;DHT22;1488;51.548;7.222;2023-05-10T04:50:39;22.20;73.20
2957;DHT22;1488;51.548;7.222;2023-05-10T04:53:06;22.20;73.20
2957;DHT22;1488;51.548;7.222;2023-05-10T04:55:34;22.20;73.20
2957;DHT22;1488;51.548;7.222;2023-05-10T04:58:02;22.20;73.20
2957;DHT22;1488;51.548;7.222;2023-05-10T05:00:29;22.20;73.20
2957;DHT22;1488;51.548;7.222;2023-05-10T05:02:55;22.20;73.20
2957;DHT22;1488;51.548;7.222;2023-05-10T05:05:22;22.20;73.20
2957;DHT22;1488;51.548;7.222;2023-05-10T05:07:49;22.20;73.20
2957;DHT22;1488;51.548;7.222;2023-05-10T05:10:16;22.20;73.20
2957;DHT22;1488;51.548;7.222;2023-05-10T05:12:44;22.20;73.20
2957;DHT22;1488;51.548;7.222;2023-05-10T05:15:11;22.20;73.20
2957;DHT22;1488;51.548;7.222;2023-05-10T05:17:38;22.20;73.20
2957;DHT22;1488;51.548;7.222;2023-05-10T05:20:06;22.20;73.20
2957;DHT22;1488;51.548;7.222;2023-05-10T05:22:33;22.20;73.20
2957;DHT22;1488;51.548;7.222;2023-05-10T05:25:00;22.20;73.20
2957;DHT22;1488;51.548;7.222;2023-05-10T05:27:27;22.20;73.20
2957;DHT22;1488;51.548;7.222;2023-05-10T05:29:56;22.20;73.20
2957;DHT22;1488;51.548;7.222;2023-05-10T05:32:23;22.20;73.20
2957;DHT22;1488;51.548;7.222;2023-05-10T05:34:51;22.20;73.20
2957;DHT22;1488;51.548;7.222;2023-05-10T05:37:20;22.20;73.20
2957;DHT22;1488;51.548;7.222;2023-05-10T05:39:48;22.20;73.30
2957;DHT22;1488;51.548;7.222;2023-05-10T05:42:14;22.20;73.20
2957;DHT22;1488;51.548;7.222;2023-05-10T05:44:43;22.20;73.30
2957;DHT22;1488;51.548;7.222;2023-05-10T05:47:11;22.20;73.30
2957;DHT22;1488;51.548;7.222;2023-05-10T05:49:38;22.20;73.30
2957;DHT22;1488;51.548;7.222;2023-05-10T05:52:05;22.20;73.30
2957;DHT22;1488;51.548;7.222;2023-05-10T05:54:32;22.20;73.30
2957;DHT22;1488;51.548;7.222;2023-05-10T05:56:59;22.20;73.30
2957;DHT22;1488;51.548;7.222;2023-05-10T05:59:26;22.20;73.30
2957;DHT22;1488;51.548;7.222;2023-05-10T06:01:54;22.20;73.30
2957;DHT22;1488;51.548;7.222;2023-05-10T06:04:22;22.20;74.10
2957;DHT22;1488;51.548;7.222;2023-05-10T06:06:49;22.20;73.30
2957;DHT22;1488;51.548;7.222;2023-05-10T06:09:16;22.20;73.30
2957;DHT22;1488;51.548;7.222;2023-05-10T06:11:43;22.20;73.30
2957;DHT22;1488;51.548;7.222;2023-05-10T06:14:09;22.20;73.30
2957;DHT22;1488;51.548;7.222;2023-05-10T06:16:36;22.20;74.10
2957;DHT22;1488;51.548;7.222;2023-05-10T06:19:03;22.20;73.30
2957;DHT22;1488;51.548;7.222;2023-05-10T06:21:31;22.10;73.20
2957;DHT22;1488;51.548;7.222;2023-05-10T06:23:58;22.20;73.30
2957;DHT22;1488;51.548;7.222;2023-05-10T06:26:25;22.20;73.30
2957;DHT22;1488;51.548;7.222;2023-05-10T06:28:52;22.20;73.30
2957;DHT22;1488;51.548;7.222;2023-05-10T06:31:19;22.20;73.30
2957;DHT22;1488;51.548;7.222;2023-05-10T06:33:46;22.20;73.30
2957;DHT22;1488;51.548;7.222;2023-05-10T06:36:13;22.10;73.20
2957;DHT22;1488;51.548;7.222;2023-05-10T06:38:41;22.20;73.30
2957;DHT22;1488;51.548;7.222;2023-05-10T06:41:08;22.20;73.30
2957;DHT22;1488;51.548;7.222;2023-05-10T06:43:35;22.20;73.30
2957;DHT22;1488;51.548;7.222;2023-05-10T06:46:05;22.20;73.30
2957;DHT22;1488;51.548;7.222;2023-05-10T06:48:32;22.20;73.30
2957;DHT22;1488;51.548;7.222;2023-05-10T06:50:59;22.20;73.20
2957;DHT22;1488;51.548;7.222;2023-05-10T06:53:26;22.20;73.20
2957;DHT22;1488;51.548;7.222;2023-05-10T06:55:54;22.20;73.20
2957;DHT22;1488;51.548;7.222;2023-05-10T06:58:21;22.20;73.10
2957;DHT22;1488;51.548;7.222;2023-05-10T07:00:48;22.20;73.10
2957;DHT22;1488;51.548;7.222;2023-05-10T07:03:15;22.20;73.20
2957;DHT22;1488;51.548;7.222;2023-05-10T07:05:41;22.20;74.00
2957;DHT22;1488;51.548;7.222;2023-05-10T07:08:08;22.20;73.10
2957;DHT22;1488;51.548;7.222;2023-05-10T07:10:35;22.20;73.10
2957;DHT22;1488;51.548;7.222;2023-05-10T07:13:03;22.20;73.10
2957;DHT22;1488;51.548;7.222;2023-05-10T07:15:30;22.20;73.10
2957;DHT22;1488;51.548;7.222;2023-05-10T07:17:57;22.20;73.10
2957;DHT22;1488;51.548;7.222;2023-05-10T07:20:24;22.20;73.10
2957;DHT22;1488;51.548;7.222;2023-05-10T07:22:51;22.20;73.90
2957;DHT22;1488;51.548;7.222;2023-05-10T07:25:18;22.20;73.10
2957;DHT22;1488;51.548;7.222;2023-05-10T07:27:45;22.20;73.00
2957;DHT22;1488;51.548;7.222;2023-05-10T07:30:15;22.30;73.10
2957;DHT22;1488;51.548;7.222;2023-05-10T07:32:42;22.30;73.90
2957;DHT22;1488;51.548;7.222;2023-05-10T07:35:09;22.30;72.90
2957;DHT22;1488;51.548;7.222;2023-05-10T07:37:35;22.30;72.90
2957;DHT22;1488;51.548;7.222;2023-05-10T07:40:02;22.30;73.70
2957;DHT22;1488;51.548;7.222;2023-05-10T07:42:29;22.30;72.70
2957;DHT22;1488;51.548;7.222;2023-05-10T07:44:56;22.30;72.70
2957;DHT22;1488;51.548;7.222;2023-05-10T07:47:24;22.30;72.70
2957;DHT22;1488;51.548;7.222;2023-05-10T07:49:51;22.30;72.70
2957;DHT22;1488;51.548;7.222;2023-05-10T07:52:18;22.40;72.80
2957;DHT22;1488;51.548;7.222;2023-05-10T07:54:45;22.30;72.80
2957;DHT22;1488;51.548;7.222;2023-05-10T07:57:11;22.30;72.70
2957;DHT22;1488;51.548;7.222;2023-05-10T07:59:40;22.30;72.70
2957;DHT22;1488;51.548;7.222;2023-05-10T08:02:06;22.40;72.80
2957;DHT22;1488;51.548;7.222;2023-05-10T08:04:35;22.40;72.80
2957;DHT22;1488;51.548;7.222;2023-05-10T08:07:01;22.40;72.70
2957;DHT22;1488;51.548;7.222;2023-05-10T08:09:28;22.40;72.70
2957;DHT22;1488;51.548;7.222;2023-05-10T08:11:55;22.40;72.70
2957;DHT22;1488;51.548;7.222;2023-05-10T08:14:22;22.40;72.60
2957;DHT22;1488;51.548;7.222;2023-05-10T08:16:49;22.40;72.70
2957;DHT22;1488;51.548;7.222;2023-05-10T08:19:15;22.40;72.60
2957;DHT22;1488;51.548;7.222;2023-05-10T08:21:45;22.40;72.60
2957;DHT22;1488;51.548;7.222;2023-05-10T08:24:12;22.40;72.70
2957;DHT22;1488;51.548;7.222;2023-05-10T08:26:39;22.40;72.70
2957;DHT22;1488;51.548;7.222;2023-05-10T08:29:06;22.40;72.70
2957;DHT22;1488;51.548;7.222;2023-05-10T08:31:33;22.40;72.70
2957;DHT22;1488;51.548;7.222;2023-05-10T08:33:59;22.40;72.80
2957;DHT22;1488;51.548;7.222;2023-05-10T08:36:26;22.40;72.70
2957;DHT22;1488;51.548;7.222;2023-05-10T08:38:55;22.40;72.70
2957;DHT22;1488;51.548;7.222;2023-05-10T08:41:22;22.40;72.70
2957;DHT22;1488;51.548;7.222;2023-05-10T08:43:52;22.40;72.70
2957;DHT22;1488;51.548;7.222;2023-05-10T08:46:21;22.40;72.70
2957;DHT22;1488;51.548;7.222;2023-05-10T08:48:49;22.40;72.80
2957;DHT22;1488;51.548;7.222;2023-05-10T08:51:19;22.40;72.70
2957;DHT22;1488;51.548;7.222;2023-05-10T08:53:47;22.40;72.80
2957;DHT22;1488;51.548;7.222;2023-05-10T08:56:15;22.40;72.80
2957;DHT22;1488;51.548;7.222;2023-05-10T08:58:43;22.40;72.80
2957;DHT22;1488;51.548;7.222;2023-05-10T09:01:11;22.40;73.70
2957;DHT22;1488;51.548;7.222;2023-05-10T09:03:39;22.40;72.80
2957;DHT22;1488;51.548;7.222;2023-05-10T09:06:06;22.40;72.80
2957;DHT22;1488;51.548;7.222;2023-05-10T09:08:33;22.40;72.70
2957;DHT22;1488;51.548;7.222;2023-05-10T09:11:01;22.40;72.70
2957;DHT22;1488;51.548;7.222;2023-05-10T09:13:29;22.40;72.70
2957;DHT22;1488;51.548;7.222;2023-05-10T09:15:57;22.40;72.70
2957;DHT22;1488;51.548;7.222;2023-05-10T09:18:24;22.40;72.70
2957;DHT22;1488;51.548;7.222;2023-05-10T09:20:51;22.40;72.70
2957;DHT22;1488;51.548;7.222;2023-05-10T09:23:18;22.40;72.70
2957;DHT22;1488;51.548;7.222;2023-05-10T09:25:45;22.40;72.70
2957;DHT22;1488;51.548;7.222;2023-05-10T09:28:12;22.40;72.70
2957;DHT22;1488;51.548;7.222;2023-05-10T09:30:40;22.50;72.80
2957;DHT22;1488;51.548;7.222;2023-05-10T09:33:08;22.40;72.70
2957;DHT22;1488;51.548;7.222;2023-05-10T09:35:35;22.40;72.70
2957;DHT22;1488;51.548;7.222;2023-05-10T09:38:03;22.40;72.70
2957;DHT22;1488;51.548;7.222;2023-05-10T09:40:31;22.40;72.60
2957;DHT22;1488;51.548;7.222;2023-05-10T09:42:59;22.40;72.70
2957;DHT22;1488;51.548;7.222;2023-05-10T09:45:27;22.40;72.70
2957;DHT22;1488;51.548;7.222;2023-05-10T09:47:56;22.40;72.70
2957;DHT22;1488;51.548;7.222;2023-05-10T09:50:23;22.40;72.80
2957;DHT22;1488;51.548;7.222;2023-05-10T09:52:51;22.40;72.80
2957;DHT22;1488;51.548;7.222;2023-05-10T09:55:20;22.40;72.80
2957;DHT22;1488;51.548;7.222;2023-05-10T09:57:48;22.40;72.90
2957;DHT22;1488;51.548;7.222;2023-05-10T10:00:19;22.50;73.10
2957;DHT22;1488;51.548;7.222;2023-05-10T10:02:48;22.50;73.10
2957;DHT22;1488;51.548;7.222;2023-05-10T10:05:16;22.50;73.10
2957;DHT22;1488;51.548;7.222;2023-05-10T10:07:43;22.50;73.10
2957;DHT22;1488;51.548;7.222;2023-05-10T10:10:10;22.50;73.00
2957;DHT22;1488;51.548;7.222;2023-05-10T10:12:40;22.50;73.00
2957;DHT22;1488;51.548;7.222;2023-05-10T10:15:09;22.50;73.00
2957;DHT22;1488;51.548;7.222;2023-05-10T10:17:37;22.50;73.00
2957;DHT22;1488;51.548;7.222;2023-05-10T10:20:06;22.50;73.00
2957;DHT22;1488;51.548;7.222;2023-05-10T10:22:34;22.50;73.00
2957;DHT22;1488;51.548;7.222;2023-05-10T10:25:01;22.60;73.10
2957;DHT22;1488;51.548;7.222;2023-05-10T10:27:34;22.50;72.90
2957;DHT22;1488;51.548;7.222;2023-05-10T10:30:11;22.50;73.00
2957;DHT22;1488;51.548;7.222;2023-05-10T10:32:54;22.50;73.00
2957;DHT22;1488;51.548;7.222;2023-05-10T10:35:28;22.50;73.00
2957;DHT22;1488;51.548;7.222;2023-05-10T10:37:57;22.50;73.00
2957;DHT22;1488;51.548;7.222;2023-05-10T10:40:25;22.50;73.00
2957;DHT22;1488;51.548;7.222;2023-05-10T10:42:53;22.50;73.00
2957;DHT22;1488;51.548;7.222;2023-05-10T10:45:21;22.50;73.00
2957;DHT22;1488;51.548;7.222;2023-05-10T10:47:48;22.50;73.00
2957;DHT22;1488;51.548;7.222;2023-05-10T10:50:15;22.60;73.20
2957;DHT22;1488;51.548;7.222;2023-05-10T10:52:43;22.50;73.10
2957;DHT22;1488;51.548;7.222;2023-05-10T10:55:12;22.60;73.20
2957;DHT22;1488;51.548;7.222;2023-05-10T10:57:44;22.60;73.20
2957;DHT22;1488;51.548;7.222;2023-05-10T11:00:19;22.60;73.10
2957;DHT22;1488;51.548;7.222;2023-05-10T11:02:47;22.60;73.10
2957;DHT22;1488;51.548;7.222;2023-05-10T11:05:44;22.60;73.10
2957;DHT22;1488;51.548;7.222;2023-05-10T11:08:19;22.60;73.10
2957;DHT22;1488;51.548;7.222;2023-05-10T11:10:53;22.60;73.20
2957;DHT22;1488;51.548;7.222;2023-05-10T11:13:29;22.60;73.20
2957;DHT22;1488;51.548;7.222;2023-05-10T11:15:57;22.60;73.10
2957;DHT22;1488;51.548;7.222;2023-05-10T11:18:25;22.60;73.20
2957;DHT22;1488;51.548;7.222;2023-05-10T11:20:52;22.60;73.10
2957;DHT22;1488;51.548;7.222;2023-05-10T11:23:21;22.60;73.20
2957;DHT22;1488;51.548;7.222;2023-05-10T11:25:49;22.60;73.10
2957;DHT22;1488;51.548;7.222;2023-05-10T11:28:18;22.60;73.20
2957;DHT22;1488;51.548;7.222;2023-05-10T11:30:45;22.60;73.10
2957;DHT22;1488;51.548;7.222;2023-05-10T11:33:16;22.60;73.20
2957;DHT22;1488;51.548;7.222;2023-05-10T11:35:43;22.60;73.20
2957;DHT22;1488;51.548;7.222;2023-05-10T11:38:11;22.60;73.20
2957;DHT22;1488;51.548;7.222;2023-05-10T11:40:40;22.60;73.20
2957;DHT22;1488;51.548;7.222;2023-05-10T11:43:08;22.60;73.20
2957;DHT22;1488;51.548;7.222;2023-05-10T11:45:37;22.60;73.20
2957;DHT22;1488;51.548;7.222;2023-05-10T11:48:04;22.60;73.20
2957;DHT22;1488;51.548;7.222;2023-05-10T11:50:31;22.60;73.20
2957;DHT22;1488;51.548;7.222;2023-05-10T11:52:58;22.60;73.20
2957;DHT22;1488;51.548;7.222;2023-05-10T11:55:25;22.60;73.10
2957;DHT22;1488;51.548;7.222;2023-05-10T11:57:52;22.60;73.20
2957;DHT22;1488;51.548;7.222;2023-05-10T12:00:19;22.60;73.20
2957;DHT22;1488;51.548;7.222;2023-05-10T12:02:48;22.70;73.50
2957;DHT22;1488;51.548;7.222;2023-05-10T12:05:15;22.60;73.30
2957;DHT22;1488;51.548;7.222;2023-05-10T12:07:42;22.70;73.40
2957;DHT22;1488;51.548;7.222;2023-05-10T12:10:11;22.60;73.30
2957;DHT22;1488;51.548;7.222;2023-05-10T12:12:41;22.60;73.30
2957;DHT22;1488;51.548;7.222;2023-05-10T12:15:12;22.60;73.30
2957;DHT22;1488;51.548;7.222;2023-05-10T12:17:39;22.60;73.30
2957;DHT22;1488;51.548;7.222;2023-05-10T12:20:15;22.70;73.40
2957;DHT22;1488;51.548;7.222;2023-05-10T12:22:49;22.70;73.50
2957;DHT22;1488;51.548;7.222;2023-05-10T12:25:16;22.70;73.50
2957;DHT22;1488;51.548;7.222;2023-05-10T12:27:49;22.70;73.50
2957;DHT22;1488;51.548;7.222;2023-05-10T12:30:20;22.70;73.40
2957;DHT22;1488;51.548;7.222;2023-05-10T12:32:47;22.70;73.50
2957;DHT22;1488;51.548;7.222;2023-05-10T12:35:15;22.70;73.50
2957;DHT22;1488;51.548;7.222;2023-05-10T12:37:43;22.70;73.70
2957;DHT22;1488;51.548;7.222;2023-05-10T12:40:11;22.70;73.70
2957;DHT22;1488;51.548;7.222;2023-05-10T12:42:39;22.80;73.80
2957;DHT22;1488;51.548;7.222;2023-05-10T12:45:07;22.80;73.90
2957;DHT22;1488;51.548;7.222;2023-05-10T12:47:34;22.80;73.70
2957;DHT22;1488;51.548;7.222;2023-05-10T12:50:01;22.80;73.70
2957;DHT22;1488;51.548;7.222;2023-05-10T12:52:30;22.80;73.70
2957;DHT22;1488;51.548;7.222;2023-05-10T12:54:58;22.80;73.60
2957;DHT22;1488;51.548;7.222;2023-05-10T12:57:25;22.80;73.60
2957;DHT22;1488;51.548;7.222;2023-05-10T12:59:52;22.80;73.50
2957;DHT22;1488;51.548;7.222;2023-05-10T13:02:19;22.80;73.60
2957;DHT22;1488;51.548;7.222;2023-05-10T13:04:46;22.80;73.70
2957;DHT22;1488;51.548;7.222;2023-05-10T13:07:13;22.80;73.70
2957;DHT22;1488;51.548;7.222;2023-05-10T13:09:41;22.80;73.70
2957;DHT22;1488;51.548;7.222;2023-05-10T13:12:08;22.80;73.60
2957;DHT22;1488;51.548;7.222;2023-05-10T13:14:35;22.80;73.60
2957;DHT22;1488;51.548;7.222;2023-05-10T13:17:02;22.90;73.80
2957;DHT22;1488;51.548;7.222;2023-05-10T13:19:29;22.90;73.60
2957;DHT22;1488;51.548;7.222;2023-05-10T13:21:56;22.90;73.70
2957;DHT22;1488;51.548;7.222;2023-05-10T13:24:23;22.80;73.60
2957;DHT22;1488;51.548;7.222;2023-05-10T13:26:51;22.90;74.60
2957;DHT22;1488;51.548;7.222;2023-05-10T13:29:18;22.90;73.80
2957;DHT22;1488;51.548;7.222;2023-05-10T13:31:46;22.80;73.70
2957;DHT22;1488;51.548;7.222;2023-05-10T13:34:13;22.80;73.80
2957;DHT22;1488;51.548;7.222;2023-05-10T13:36:40;22.90;73.90
2957;DHT22;1488;51.548;7.222;2023-05-10T13:39:07;22.90;73.90
2957;DHT22;1488;51.548;7.222;2023-05-10T13:41:34;22.90;73.90
2957;DHT22;1488;51.548;7.222;2023-05-10T13:44:03;22.90;74.00
2957;DHT22;1488;51.548;7.222;2023-05-10T13:46:30;22.90;74.10
2957;DHT22;1488;51.548;7.222;2023-05-10T13:48:57;22.80;74.00
2957;DHT22;1488;51.548;7.222;2023-05-10T13:51:24;22.90;74.10
2957;DHT22;1488;51.548;7.222;2023-05-10T13:53:50;22.90;74.10
2957;DHT22;1488;51.548;7.222;2023-05-10T13:56:17;22.90;74.00
2957;DHT22;1488;51.548;7.222;2023-05-10T13:58:44;22.90;74.00
2957;DHT22;1488;51.548;7.222;2023-05-10T14:01:12;22.90;74.10
2957;DHT22;1488;51.548;7.222;2023-05-10T14:03:39;22.90;74.10
2957;DHT22;1488;51.548;7.222;2023-05-10T14:06:06;22.90;74.00
2957;DHT22;1488;51.548;7.222;2023-05-10T14:08:34;22.90;74.10
2957;DHT22;1488;51.548;7.222;2023-05-10T14:11:01;22.90;74.00
2957;DHT22;1488;51.548;7.222;2023-05-10T14:13:28;22.90;74.00
2957;DHT22;1488;51.548;7.222;2023-05-10T14:15:55;22.90;74.00
2957;DHT22;1488;51.548;7.222;2023-05-10T14:18:23;22.90;73.90
2957;DHT22;1488;51.548;7.222;2023-05-10T14:20:52;22.90;74.00
2957;DHT22;1488;51.548;7.222;2023-05-10T14:23:18;22.90;74.80
2957;DHT22;1488;51.548;7.222;2023-05-10T14:25:49;22.90;74.00
2957;DHT22;1488;51.548;7.222;2023-05-10T14:28:16;22.90;74.00
2957;DHT22;1488;51.548;7.222;2023-05-10T14:30:43;22.90;73.90
2957;DHT22;1488;51.548;7.222;2023-05-10T14:33:10;22.90;73.90
2957;DHT22;1488;51.548;7.222;2023-05-10T14:35:39;22.90;73.90
2957;DHT22;1488;51.548;7.222;2023-05-10T14:38:06;22.90;73.90
2957;DHT22;1488;51.548;7.222;2023-05-10T14:40:32;22.90;73.90
2957;DHT22;1488;51.548;7.222;2023-05-10T14:42:59;22.90;73.90
2957;DHT22;1488;51.548;7.222;2023-05-10T14:45:26;22.90;73.90
2957;DHT22;1488;51.548;7.222;2023-05-10T14:47:53;22.90;73.90
2957;DHT22;1488;51.548;7.222;2023-05-10T14:50:20;22.90;73.80
2957;DHT22;1488;51.548;7.222;2023-05-10T14:52:48;22.90;73.90
2957;DHT22;1488;51.548;7.222;2023-05-10T14:55:15;22.90;73.90
2957;DHT22;1488;51.548;7.222;2023-05-10T14:57:42;22.90;73.90
2957;DHT22;1488;51.548;7.222;2023-05-10T15:00:13;22.90;73.90
2957;DHT22;1488;51.548;7.222;2023-05-10T15:02:41;22.90;74.00
2957;DHT22;1488;51.548;7.222;2023-05-10T15:05:10;22.90;74.00
2957;DHT22;1488;51.548;7.222;2023-05-10T15:07:37;22.90;73.90
2957;DHT22;1488;51.548;7.222;2023-05-10T15:10:07;22.90;73.80
2957;DHT22;1488;51.548;7.222;2023-05-10T15:12:34;22.90;73.80
2957;DHT22;1488;51.548;7.222;2023-05-10T15:15:01;22.90;73.80
2957;DHT22;1488;51.548;7.222;2023-05-10T15:17:29;22.90;73.90
2957;DHT22;1488;51.548;7.222;2023-05-10T15:19:56;22.90;73.90
2957;DHT22;1488;51.548;7.222;2023-05-10T15:22:23;22.90;74.00
2957;DHT22;1488;51.548;7.222;2023-05-10T15:24:50;22.90;74.00
2957;DHT22;1488;51.548;7.222;2023-05-10T15:27:18;22.90;74.30
2957;DHT22;1488;51.548;7.222;2023-05-10T15:29:45;22.90;74.20
2957;DHT22;1488;51.548;7.222;2023-05-10T15:32:11;23.00;74.30
2957;DHT22;1488;51.548;7.222;2023-05-10T15:34:38;22.90;74.20
2957;DHT22;1488;51.548;7.222;2023-05-10T15:37:05;22.90;74.20
2957;DHT22;1488;51.548;7.222;2023-05-10T15:39:32;22.90;74.30
2957;DHT22;1488;51.548;7.222;2023-05-10T15:41:59;22.90;74.30
2957;DHT22;1488;51.548;7.222;2023-05-10T15:44:28;22.90;74.30
2957;DHT22;1488;51.548;7.222;2023-05-10T15:46:55;22.90;74.40
2957;DHT22;1488;51.548;7.222;2023-05-10T15:49:22;22.90;75.20
2957;DHT22;1488;51.548;7.222;2023-05-10T15:51:49;22.90;74.30
2957;DHT22;1488;51.548;7.222;2023-05-10T15:54:15;22.90;74.40
2957;DHT22;1488;51.548;7.222;2023-05-10T15:56:42;22.90;74.40
2957;DHT22;1488;51.548;7.222;2023-05-10T15:59:09;22.90;73.70
2957;DHT22;1488;51.548;7.222;2023-05-10T16:01:37;22.90;73.00
2957;DHT22;1488;51.548;7.222;2023-05-10T16:04:04;22.90;73.30
2957;DHT22;1488;51.548;7.222;2023-05-10T16:06:31;22.90;73.80
2957;DHT22;1488;51.548;7.222;2023-05-10T16:08:58;22.80;72.70